Time;durP1;ratioP1;P1;durP2;ratioP2;P2;SDS_P1;SDS_P2;PMS_P1;PMS_P2;Temp;Humidity;BMP_temperature;BMP_pressure;BME280_temperature;BME280_humidity;BME280_pressure;Samples;Min_cycle;Max_cycle;Signal;HPM_P1;HPM_P2
2024/01/09 00:01:09;;;;;;;;;;;17.40;62.00;;;;;;5039239;28;1504;-69
2024/01/09 00:03:35;;;;;;;;;;;17.40;62.00;;;;;;5037972;28;1268;-69
2024/01/09 00:06:00;;;;;;;;;;;17.40;62.00;;;;;;5038030;28;896;-70
2024/01/09 00:08:25;;;;;;;;;;;17.40;62.00;;;;;;5040094;28;1311;-68
2024/01/09 00:10:51;;;;;;;;;;;17.40;62.00;;;;;;5040473;28;1193;-69
2024/01/09 00:13:16;;;;;;;;;;;17.40;62.00;;;;;;5052306;28;1925;-69
2024/01/09 00:15:42;;;;;;;;;;;17.40;62.10;;;;;;5036547;28;1305;-69
2024/01/09 00:18:07;;;;;;;;;;;17.40;62.00;;;;;;5039197;28;1070;-69
2024/01/09 00:20:33;;;;;;;;;;;17.40;62.00;;;;;;5072130;28;1168;-69
2024/01/09 00:22:58;;;;;;;;;;;17.40;62.10;;;;;;5041745;28;1261;-69
2024/01/09 00:25:24;;;;;;;;;;;17.40;62.10;;;;;;5041127;28;950;-68
2024/01/09 00:27:49;;;;;;;;;;;17.40;62.10;;;;;;5042927;28;1132;-68
2024/01/09 00:30:15;;;;;;;;;;;17.40;62.10;;;;;;5047298;28;999;-68
2024/01/09 00:32:46;;;;;;;;;;;17.40;62.10;;;;;;5041187;28;1902;-68
2024/01/09 00:35:14;;;;;;;;;;;17.40;62.10;;;;;;5037573;28;1543;-68
2024/01/09 00:37:39;;;;;;;;;;;17.40;62.10;;;;;;5039068;28;1648;-67
2024/01/09 00:40:05;;;;;;;;;;;17.40;62.10;;;;;;5036753;28;1509;-67
2024/01/09 00:42:31;;;;;;;;;;;17.40;62.20;;;;;;5049182;28;1333;-69
2024/01/09 00:45:00;;;;;;;;;;;17.40;62.10;;;;;;5038444;28;1566;-67
2024/01/09 00:47:26;;;;;;;;;;;17.40;62.20;;;;;;5041205;28;1320;-67
2024/01/09 00:49:51;;;;;;;;;;;17.30;62.10;;;;;;5055997;28;1238;-69
2024/01/09 00:52:17;;;;;;;;;;;17.30;62.20;;;;;;5038144;28;1489;-68
2024/01/09 00:54:43;;;;;;;;;;;17.40;62.20;;;;;;5036891;28;1894;-67
2024/01/09 00:57:09;;;;;;;;;;;17.30;62.20;;;;;;5037625;28;1521;-69
2024/01/09 00:59:34;;;;;;;;;;;17.30;62.20;;;;;;5038529;28;1402;-69
2024/01/09 01:01:59;;;;;;;;;;;17.30;62.20;;;;;;5039153;28;1310;-69
2024/01/09 01:04:25;;;;;;;;;;;17.30;62.20;;;;;;5038023;28;1463;-68
2024/01/09 01:06:50;;;;;;;;;;;17.40;63.00;;;;;;5038966;28;1558;-69
2024/01/09 01:09:16;;;;;;;;;;;17.30;62.20;;;;;;5038670;28;1651;-69
2024/01/09 01:11:41;;;;;;;;;;;17.30;62.20;;;;;;5039178;28;1726;-68
2024/01/09 01:14:07;;;;;;;;;;;17.30;62.20;;;;;;5038256;28;1948;-69
2024/01/09 01:16:32;;;;;;;;;;;17.40;62.30;;;;;;5037888;28;1256;-69
2024/01/09 01:18:58;;;;;;;;;;;17.30;62.20;;;;;;5040490;28;1530;-68
2024/01/09 01:21:23;;;;;;;;;;;17.30;62.20;;;;;;5069339;28;1275;-68
2024/01/09 01:23:49;;;;;;;;;;;17.30;62.30;;;;;;5038104;28;1375;-70
2024/01/09 01:26:14;;;;;;;;;;;17.30;62.30;;;;;;5038131;28;1119;-68
2024/01/09 01:28:40;;;;;;;;;;;17.30;62.30;;;;;;5039392;28;1394;-68
2024/01/09 01:31:05;;;;;;;;;;;17.30;62.20;;;;;;5070777;28;1413;-70
2024/01/09 01:33:31;;;;;;;;;;;17.30;62.30;;;;;;5038731;28;1973;-69
2024/01/09 01:35:56;;;;;;;;;;;17.30;62.30;;;;;;5068034;28;1302;-68
2024/01/09 01:38:22;;;;;;;;;;;17.30;62.30;;;;;;5039105;28;1442;-70
2024/01/09 01:40:47;;;;;;;;;;;17.30;62.30;;;;;;5036974;28;1451;-69
2024/01/09 01:43:13;;;;;;;;;;;17.30;62.30;;;;;;5071231;28;1703;-67
2024/01/09 01:45:38;;;;;;;;;;;17.30;62.40;;;;;;5040045;28;1449;-67
2024/01/09 01:48:04;;;;;;;;;;;17.30;62.30;;;;;;5037765;28;1235;-68
2024/01/09 01:50:30;;;;;;;;;;;17.30;62.30;;;;;;5037921;28;1447;-69
2024/01/09 01:52:56;;;;;;;;;;;17.30;62.30;;;;;;5037617;28;1941;-68
2024/01/09 01:55:21;;;;;;;;;;;17.30;62.40;;;;;;5037392;28;1261;-70
2024/01/09 01:57:47;;;;;;;;;;;17.30;62.40;;;;;;5035959;28;1125;-70
2024/01/09 02:00:13;;;;;;;;;;;17.30;62.40;;;;;;5066669;28;1559;-68
2024/01/09 02:02:38;;;;;;;;;;;17.30;62.40;;;;;;5069037;28;1631;-69
2024/01/09 02:05:05;;;;;;;;;;;17.30;62.40;;;;;;5037400;28;1357;-70
2024/01/09 02:07:31;;;;;;;;;;;17.30;62.40;;;;;;5055470;28;1480;-70
2024/01/09 02:09:57;;;;;;;;;;;17.30;62.40;;;;;;5045807;28;1141;-66
2024/01/09 02:12:22;;;;;;;;;;;17.30;62.40;;;;;;5039928;28;1343;-70
2024/01/09 02:14:48;;;;;;;;;;;17.30;62.40;;;;;;5069365;28;1906;-70
2024/01/09 02:17:13;;;;;;;;;;;17.30;62.40;;;;;;5039106;28;1281;-69
2024/01/09 02:19:39;;;;;;;;;;;17.30;62.40;;;;;;5039096;28;1521;-68
2024/01/09 02:22:04;;;;;;;;;;;17.30;63.20;;;;;;5038032;28;1257;-69
2024/01/09 02:24:30;;;;;;;;;;;17.30;62.40;;;;;;5037618;28;1471;-68
2024/01/09 02:27:00;;;;;;;;;;;17.30;62.50;;;;;;5039006;28;1440;-66
2024/01/09 02:29:26;;;;;;;;;;;17.30;62.40;;;;;;5041995;28;1447;-68
2024/01/09 02:31:51;;;;;;;;;;;17.30;62.50;;;;;;5041059;28;1479;-70
2024/01/09 02:34:16;;;;;;;;;;;17.30;62.50;;;;;;5043390;28;1991;-69
2024/01/09 02:36:42;;;;;;;;;;;17.30;62.50;;;;;;5043668;28;1434;-68
2024/01/09 02:39:07;;;;;;;;;;;17.30;62.50;;;;;;5041742;28;1073;-68
2024/01/09 02:41:37;;;;;;;;;;;17.20;62.40;;;;;;5041508;28;1379;-69
2024/01/09 02:44:03;;;;;;;;;;;17.30;62.50;;;;;;5040835;28;1548;-69
2024/01/09 02:46:28;;;;;;;;;;;17.30;62.50;;;;;;5042108;28;1514;-68
2024/01/09 02:48:54;;;;;;;;;;;17.30;62.50;;;;;;5039184;28;1463;-67
2024/01/09 02:51:19;;;;;;;;;;;17.20;62.50;;;;;;5040848;28;1251;-67
2024/01/09 02:53:45;;;;;;;;;;;17.20;62.60;;;;;;5040665;28;1963;-69
2024/01/09 02:56:11;;;;;;;;;;;17.20;62.50;;;;;;5041303;28;1631;-68
2024/01/09 02:58:36;;;;;;;;;;;17.20;62.50;;;;;;5042762;28;1246;-67
2024/01/09 03:01:01;;;;;;;;;;;17.20;62.50;;;;;;5041930;28;1537;-70
2024/01/09 03:03:27;;;;;;;;;;;17.20;62.50;;;;;;5042619;28;1445;-69
2024/01/09 03:05:52;;;;;;;;;;;17.20;62.60;;;;;;5042584;28;1275;-68
2024/01/09 03:08:18;;;;;;;;;;;17.20;62.50;;;;;;5039606;28;1320;-68
2024/01/09 03:10:43;;;;;;;;;;;17.20;62.50;;;;;;5042958;28;1234;-69
2024/01/09 03:13:09;;;;;;;;;;;17.20;62.50;;;;;;5041765;28;1899;-68
2024/01/09 03:15:34;;;;;;;;;;;17.20;62.50;;;;;;5038072;28;1098;-68
2024/01/09 03:18:03;;;;;;;;;;;17.20;62.50;;;;;;5041886;28;1392;-69
2024/01/09 03:20:28;;;;;;;;;;;17.20;63.20;;;;;;5044646;28;1300;-70
2024/01/09 03:22:54;;;;;;;;;;;17.20;62.50;;;;;;5041958;28;1398;-69
2024/01/09 03:25:19;;;;;;;;;;;17.20;62.50;;;;;;5039516;28;1446;-69
2024/01/09 03:27:45;;;;;;;;;;;17.20;62.50;;;;;;5041925;28;1292;-69
2024/01/09 03:30:10;;;;;;;;;;;17.20;63.30;;;;;;5040969;28;995;-69
2024/01/09 03:32:36;;;;;;;;;;;17.20;62.50;;;;;;5038388;28;1890;-68
2024/01/09 03:35:01;;;;;;;;;;;17.20;62.50;;;;;;5039140;28;1223;-68
2024/01/09 03:37:27;;;;;;;;;;;17.20;62.50;;;;;;5039218;28;1244;-66
2024/01/09 03:39:53;;;;;;;;;;;17.20;62.50;;;;;;5039098;28;1271;-68
2024/01/09 03:42:18;;;;;;;;;;;17.20;62.50;;;;;;5071631;28;1279;-70
2024/01/09 03:44:44;;;;;;;;;;;17.20;62.50;;;;;;5040719;28;1671;-69
2024/01/09 03:47:10;;;;;;;;;;;17.20;62.50;;;;;;5048283;28;1518;-69
2024/01/09 03:49:35;;;;;;;;;;;17.20;62.60;;;;;;5042313;28;1623;-69
2024/01/09 03:52:01;;;;;;;;;;;17.20;62.50;;;;;;5037040;28;1354;-71
2024/01/09 03:54:26;;;;;;;;;;;17.20;62.50;;;;;;5039715;28;1910;-69
2024/01/09 03:56:52;;;;;;;;;;;17.20;62.60;;;;;;5039784;28;1265;-69
2024/01/09 03:59:17;;;;;;;;;;;17.20;62.60;;;;;;5041370;28;1346;-67
2024/01/09 04:01:43;;;;;;;;;;;17.20;62.60;;;;;;5040149;28;1270;-69
2024/01/09 04:04:08;;;;;;;;;;;17.20;62.60;;;;;;5040494;28;1747;-68
2024/01/09 04:06:34;;;;;;;;;;;17.20;62.60;;;;;;5041518;28;1272;-68
2024/01/09 04:08:59;;;;;;;;;;;17.20;62.60;;;;;;5041396;28;1578;-69
2024/01/09 04:11:25;;;;;;;;;;;17.20;62.60;;;;;;5038356;28;1494;-69
2024/01/09 04:13:50;;;;;;;;;;;17.20;62.50;;;;;;5037284;28;1969;-68
2024/01/09 04:16:18;;;;;;;;;;;17.20;62.60;;;;;;5047848;28;1272;-69
2024/01/09 04:18:43;;;;;;;;;;;17.20;62.60;;;;;;5037603;28;1790;-69
2024/01/09 04:21:08;;;;;;;;;;;17.20;62.60;;;;;;5036951;28;1253;-69
2024/01/09 04:23:34;;;;;;;;;;;17.20;62.60;;;;;;5041489;28;1335;-67
2024/01/09 04:25:59;;;;;;;;;;;17.20;62.60;;;;;;5039534;28;1298;-67
2024/01/09 04:28:25;;;;;;;;;;;17.20;62.60;;;;;;5041994;28;1353;-68
2024/01/09 04:30:51;;;;;;;;;;;17.20;62.60;;;;;;5036987;28;1118;-67
2024/01/09 04:33:16;;;;;;;;;;;17.20;62.60;;;;;;5037129;28;1950;-68
2024/01/09 04:35:42;;;;;;;;;;;17.20;62.60;;;;;;5039894;28;1339;-68
2024/01/09 04:38:07;;;;;;;;;;;17.20;62.60;;;;;;5035557;28;1729;-68
2024/01/09 04:40:32;;;;;;;;;;;17.20;62.60;;;;;;5038048;28;1273;-69
2024/01/09 04:42:58;;;;;;;;;;;17.20;62.60;;;;;;5046994;28;1474;-68
2024/01/09 04:45:23;;;;;;;;;;;17.20;62.60;;;;;;5038506;28;1260;-68
2024/01/09 04:47:49;;;;;;;;;;;17.20;62.70;;;;;;5040004;28;1331;-66
2024/01/09 04:50:14;;;;;;;;;;;17.20;62.60;;;;;;5039558;28;1512;-68
2024/01/09 04:52:40;;;;;;;;;;;17.20;62.60;;;;;;5039315;28;1918;-67
2024/01/09 04:55:05;;;;;;;;;;;17.20;62.60;;;;;;5035461;28;1343;-68
2024/01/09 04:57:31;;;;;;;;;;;17.20;62.60;;;;;;5039254;28;1495;-66
2024/01/09 04:59:56;;;;;;;;;;;17.20;62.60;;;;;;5039044;28;1329;-66
2024/01/09 05:02:22;;;;;;;;;;;17.20;62.70;;;;;;5039506;28;912;-66
2024/01/09 05:04:47;;;;;;;;;;;17.20;62.70;;;;;;5040668;28;1406;-66
2024/01/09 05:07:13;;;;;;;;;;;17.20;62.70;;;;;;5039330;28;1317;-66
2024/01/09 05:09:39;;;;;;;;;;;17.20;62.70;;;;;;5038066;28;1215;-66
2024/01/09 05:12:04;;;;;;;;;;;17.20;62.60;;;;;;5036490;28;1442;-66
2024/01/09 05:14:30;;;;;;;;;;;17.20;62.60;;;;;;5040138;28;1902;-66
2024/01/09 05:16:55;;;;;;;;;;;17.20;62.50;;;;;;5038084;28;1329;-67
2024/01/09 05:19:21;;;;;;;;;;;17.20;62.40;;;;;;5038829;28;1607;-67
2024/01/09 05:21:47;;;;;;;;;;;17.30;62.30;;;;;;5036861;28;1584;-67
2024/01/09 05:24:13;;;;;;;;;;;17.30;62.10;;;;;;5037309;28;1292;-66
2024/01/09 05:26:38;;;;;;;;;;;17.40;62.10;;;;;;5039603;28;1618;-66
2024/01/09 05:29:04;;;;;;;;;;;17.40;61.90;;;;;;5037434;28;1410;-66
2024/01/09 05:31:29;;;;;;;;;;;17.40;61.80;;;;;;5037494;28;1329;-66
2024/01/09 05:33:54;;;;;;;;;;;17.50;61.70;;;;;;5037519;28;1902;-66
2024/01/09 05:36:22;;;;;;;;;;;17.50;61.50;;;;;;5037017;28;1335;-66
2024/01/09 05:38:51;;;;;;;;;;;17.50;61.40;;;;;;5038137;28;1721;-66
2024/01/09 05:41:23;;;;;;;;;;;17.60;61.30;;;;;;5041323;28;1488;-66
2024/01/09 05:43:48;;;;;;;;;;;17.60;61.20;;;;;;5038076;28;1256;-66
2024/01/09 05:46:14;;;;;;;;;;;17.60;61.10;;;;;;5040506;28;1358;-66
2024/01/09 05:48:40;;;;;;;;;;;17.60;61.00;;;;;;5037870;28;1475;-66
2024/01/09 05:51:06;;;;;;;;;;;17.70;61.00;;;;;;5041376;28;1212;-66
2024/01/09 05:53:31;;;;;;;;;;;17.70;60.90;;;;;;5036166;28;1894;-66
2024/01/09 05:55:57;;;;;;;;;;;17.70;60.80;;;;;;5037138;28;1496;-66
2024/01/09 05:58:22;;;;;;;;;;;17.70;60.70;;;;;;5038827;28;1562;-66
2024/01/09 06:00:47;;;;;;;;;;;17.70;60.70;;;;;;5039493;28;1816;-68
2024/01/09 06:03:13;;;;;;;;;;;17.70;60.60;;;;;;5038407;28;1502;-68
2024/01/09 06:05:38;;;;;;;;;;;17.70;60.60;;;;;;5039464;28;1402;-68
2024/01/09 06:08:04;;;;;;;;;;;17.80;60.60;;;;;;5038652;28;1560;-67
2024/01/09 06:10:29;;;;;;;;;;;17.80;60.60;;;;;;5038552;28;1525;-68
2024/01/09 06:12:55;;;;;;;;;;;17.80;60.50;;;;;;5037779;28;1950;-68
2024/01/09 06:15:20;;;;;;;;;;;17.80;60.40;;;;;;5039325;28;1310;-69
2024/01/09 06:17:47;;;;;;;;;;;17.80;61.20;;;;;;5040571;28;1039;-69
2024/01/09 06:20:13;;;;;;;;;;;17.80;60.40;;;;;;5037730;28;968;-67
2024/01/09 06:22:38;;;;;;;;;;;17.80;60.40;;;;;;5037586;28;1291;-67
2024/01/09 06:25:04;;;;;;;;;;;17.80;60.30;;;;;;5036598;28;1064;-66
2024/01/09 06:27:29;;;;;;;;;;;17.80;60.30;;;;;;5036722;28;1759;-67
2024/01/09 06:29:55;;;;;;;;;;;17.80;60.30;;;;;;5036360;28;1069;-66
2024/01/09 06:32:21;;;;;;;;;;;17.80;60.30;;;;;;5035198;28;900;-68
2024/01/09 06:34:47;;;;;;;;;;;17.80;60.20;;;;;;5035996;28;2005;-67
2024/01/09 06:37:12;;;;;;;;;;;17.80;60.20;;;;;;5036883;28;966;-67
2024/01/09 06:39:37;;;;;;;;;;;17.90;60.30;;;;;;5038776;28;1291;-66
2024/01/09 06:42:03;;;;;;;;;;;17.80;60.20;;;;;;5033483;28;1419;-69
2024/01/09 06:44:29;;;;;;;;;;;17.80;60.20;;;;;;5040738;28;1741;-66
2024/01/09 06:46:54;;;;;;;;;;;17.90;60.20;;;;;;5061390;28;2386;-67
2024/01/09 06:49:20;;;;;;;;;;;17.80;60.20;;;;;;5070697;28;1328;-67
2024/01/09 06:51:45;;;;;;;;;;;17.80;60.10;;;;;;5046723;28;1411;-69
2024/01/09 06:54:11;;;;;;;;;;;17.80;60.10;;;;;;5040777;28;1967;-69
2024/01/09 06:56:36;;;;;;;;;;;17.80;60.20;;;;;;5035823;28;1524;-68
2024/01/09 06:59:02;;;;;;;;;;;17.80;60.20;;;;;;5034630;28;1307;-70
2024/01/09 07:01:27;;;;;;;;;;;17.90;60.20;;;;;;5040959;28;1559;-70
2024/01/09 07:03:53;;;;;;;;;;;17.80;60.20;;;;;;5028738;28;4145;-69
2024/01/09 07:06:18;;;;;;;;;;;17.80;60.20;;;;;;5039477;28;1284;-69
2024/01/09 07:08:44;;;;;;;;;;;17.80;60.20;;;;;;5036937;28;1513;-68
2024/01/09 07:11:09;;;;;;;;;;;17.80;60.30;;;;;;5037958;28;1275;-69
2024/01/09 07:13:35;;;;;;;;;;;17.80;60.10;;;;;;5040435;28;1898;-66
2024/01/09 07:16:01;;;;;;;;;;;17.80;60.10;;;;;;5041247;28;1310;-68
2024/01/09 07:18:27;;;;;;;;;;;17.80;60.10;;;;;;5039336;28;1337;-69
2024/01/09 07:20:53;;;;;;;;;;;17.80;60.20;;;;;;5044884;28;1406;-69
2024/01/09 07:23:18;;;;;;;;;;;17.80;60.20;;;;;;5040851;28;1387;-68
2024/01/09 07:25:44;;;;;;;;;;;17.80;60.20;;;;;;5041534;28;1440;-68
2024/01/09 07:28:09;;;;;;;;;;;17.80;60.30;;;;;;5075253;28;1334;-68
2024/01/09 07:30:35;;;;;;;;;;;17.80;60.30;;;;;;5043178;28;1031;-69
2024/01/09 07:33:00;;;;;;;;;;;17.80;60.40;;;;;;5040718;28;1974;-66
2024/01/09 07:35:26;;;;;;;;;;;17.80;60.40;;;;;;5043304;28;1330;-68
2024/01/09 07:37:51;;;;;;;;;;;17.80;60.40;;;;;;5043473;28;1129;-68
2024/01/09 07:40:16;;;;;;;;;;;17.80;60.40;;;;;;5073771;28;1363;-69
2024/01/09 07:42:42;;;;;;;;;;;17.80;60.50;;;;;;5043158;28;1473;-69
2024/01/09 07:45:11;;;;;;;;;;;17.80;60.50;;;;;;5041538;28;1436;-68
2024/01/09 07:47:37;;;;;;;;;;;17.80;60.50;;;;;;5040222;28;1364;-68
2024/01/09 07:50:03;;;;;;;;;;;17.70;60.50;;;;;;5073417;28;1484;-68
2024/01/09 07:52:29;;;;;;;;;;;17.70;60.50;;;;;;5040767;28;1398;-68
2024/01/09 07:54:54;;;;;;;;;;;17.70;60.50;;;;;;5037882;28;1906;-68
2024/01/09 07:57:19;;;;;;;;;;;17.70;60.60;;;;;;5043319;28;1538;-68
2024/01/09 07:59:45;;;;;;;;;;;17.70;60.60;;;;;;5039081;28;1700;-69
2024/01/09 08:02:10;;;;;;;;;;;17.70;60.70;;;;;;5037564;28;1368;-68
2024/01/09 08:04:39;;;;;;;;;;;17.70;60.60;;;;;;5040522;28;1403;-68
2024/01/09 08:07:04;;;;;;;;;;;17.70;60.70;;;;;;5037866;28;1307;-68
2024/01/09 08:09:30;;;;;;;;;;;17.70;60.70;;;;;;5041644;28;1619;-68
2024/01/09 08:11:55;;;;;;;;;;;17.70;60.70;;;;;;5037151;28;1352;-68
2024/01/09 08:14:21;;;;;;;;;;;17.70;60.80;;;;;;5045479;28;1903;-69
2024/01/09 08:16:46;;;;;;;;;;;17.70;60.80;;;;;;5042429;28;1484;-69
2024/01/09 08:19:12;;;;;;;;;;;17.70;60.80;;;;;;5040787;28;1246;-68
2024/01/09 08:21:37;;;;;;;;;;;17.70;60.80;;;;;;5037194;28;1573;-69
2024/01/09 08:24:03;;;;;;;;;;;17.70;60.80;;;;;;5039659;28;1508;-68
2024/01/09 08:26:28;;;;;;;;;;;17.70;60.80;;;;;;5071213;28;1518;-68
2024/01/09 08:28:54;;;;;;;;;;;17.70;60.90;;;;;;5044641;28;1314;-68
2024/01/09 08:31:20;;;;;;;;;;;17.70;60.90;;;;;;5019567;28;1296;-68
2024/01/09 08:33:45;;;;;;;;;;;17.70;61.60;;;;;;5033709;28;1969;-69
2024/01/09 08:36:11;;;;;;;;;;;17.70;60.90;;;;;;5040766;28;1320;-69
2024/01/09 08:38:37;;;;;;;;;;;17.60;60.80;;;;;;5034591;28;1585;-70
2024/01/09 08:41:02;;;;;;;;;;;17.60;60.90;;;;;;5039258;28;1251;-69
2024/01/09 08:43:28;;;;;;;;;;;17.70;60.90;;;;;;5039466;28;1448;-69
2024/01/09 08:45:54;;;;;;;;;;;17.70;60.90;;;;;;5039931;28;1645;-69
2024/01/09 08:48:19;;;;;;;;;;;17.70;60.90;;;;;;5071178;28;1385;-69
2024/01/09 08:50:45;;;;;;;;;;;17.60;60.80;;;;;;5047246;28;1335;-70
2024/01/09 08:53:10;;;;;;;;;;;17.70;60.80;;;;;;5035419;28;1898;-69
2024/01/09 08:55:36;;;;;;;;;;;17.70;60.80;;;;;;5038221;28;1754;-69
2024/01/09 08:58:01;;;;;;;;;;;17.70;60.80;;;;;;5041075;28;1421;-69
2024/01/09 09:00:27;;;;;;;;;;;17.70;60.70;;;;;;5038067;28;1165;-69
2024/01/09 09:02:52;;;;;;;;;;;17.70;60.60;;;;;;5042517;28;1557;-69
2024/01/09 09:05:18;;;;;;;;;;;17.70;60.60;;;;;;5036194;28;1510;-69
2024/01/09 09:07:43;;;;;;;;;;;17.70;60.50;;;;;;5036214;28;1394;-69
2024/01/09 09:10:09;;;;;;;;;;;17.80;60.50;;;;;;5071541;28;1282;-68
2024/01/09 09:12:34;;;;;;;;;;;17.80;60.50;;;;;;5041249;28;1247;-70
2024/01/09 09:15:01;;;;;;;;;;;17.80;60.50;;;;;;5037039;28;1912;-69
2024/01/09 09:17:26;;;;;;;;;;;17.80;60.50;;;;;;5040344;28;1369;-69
2024/01/09 09:19:52;;;;;;;;;;;17.80;60.40;;;;;;5041598;28;1304;-69
2024/01/09 09:22:18;;;;;;;;;;;17.80;60.40;;;;;;5039710;28;1036;-69
2024/01/09 09:24:44;;;;;;;;;;;17.80;60.40;;;;;;5038360;28;1659;-69
2024/01/09 09:27:09;;;;;;;;;;;17.80;60.40;;;;;;5037711;28;1167;-70
2024/01/09 09:29:35;;;;;;;;;;;17.80;60.30;;;;;;5037791;28;1062;-69
2024/01/09 09:32:00;;;;;;;;;;;17.80;60.30;;;;;;5044425;28;962;-69
2024/01/09 09:34:26;;;;;;;;;;;17.80;60.30;;;;;;5037192;28;1898;-69
2024/01/09 09:36:52;;;;;;;;;;;17.80;60.30;;;;;;5040344;28;1525;-69
2024/01/09 09:39:17;;;;;;;;;;;17.80;60.30;;;;;;5036958;28;1360;-70
2024/01/09 09:41:47;;;;;;;;;;;17.80;60.20;;;;;;5037678;28;1350;-70
2024/01/09 09:44:13;;;;;;;;;;;17.80;60.20;;;;;;5037108;28;1503;-70
2024/01/09 09:46:39;;;;;;;;;;;17.90;60.20;;;;;;5069993;28;1469;-69
2024/01/09 09:49:04;;;;;;;;;;;17.90;60.20;;;;;;5039492;28;1446;-70
2024/01/09 09:51:30;;;;;;;;;;;17.90;60.10;;;;;;5069015;28;1599;-70
2024/01/09 09:53:55;;;;;;;;;;;17.90;60.10;;;;;;5069403;28;1890;-70
2024/01/09 09:56:20;;;;;;;;;;;17.90;60.10;;;;;;5039553;28;1615;-70
2024/01/09 09:58:46;;;;;;;;;;;17.90;60.10;;;;;;5038682;28;1120;-68
2024/01/09 10:01:12;;;;;;;;;;;17.90;60.10;;;;;;5037491;28;1367;-70
2024/01/09 10:03:41;;;;;;;;;;;17.90;60.10;;;;;;5069583;28;1525;-70
2024/01/09 10:06:06;;;;;;;;;;;17.90;60.10;;;;;;5038035;28;2184;-70
2024/01/09 10:08:32;;;;;;;;;;;17.90;60.00;;;;;;5039131;28;1521;-70
2024/01/09 10:10:58;;;;;;;;;;;17.90;60.00;;;;;;5040433;28;1534;-70
2024/01/09 10:13:23;;;;;;;;;;;17.90;60.00;;;;;;5034588;28;1954;-70
2024/01/09 10:15:56;;;;;;;;;;;17.90;60.00;;;;;;5038686;28;1455;-70
2024/01/09 10:18:22;;;;;;;;;;;17.90;60.00;;;;;;5034945;28;1250;-70
2024/01/09 10:20:47;;;;;;;;;;;17.90;60.00;;;;;;5035249;28;1693;-70
2024/01/09 10:23:13;;;;;;;;;;;17.90;60.00;;;;;;5038357;28;1574;-69
2024/01/09 10:25:39;;;;;;;;;;;17.90;60.00;;;;;;5036814;28;1590;-70
2024/01/09 10:28:05;;;;;;;;;;;17.90;60.00;;;;;;5039671;28;1534;-69
2024/01/09 10:30:30;;;;;;;;;;;17.90;60.00;;;;;;5038565;28;1455;-70
2024/01/09 10:32:57;;;;;;;;;;;17.90;60.00;;;;;;5033570;28;1910;-70
2024/01/09 10:35:23;;;;;;;;;;;17.90;60.00;;;;;;5039104;28;1472;-69
2024/01/09 10:37:50;;;;;;;;;;;17.90;60.00;;;;;;5039405;28;1593;-69
2024/01/09 10:40:15;;;;;;;;;;;17.90;60.00;;;;;;5018170;28;1580;-69
2024/01/09 10:42:44;;;;;;;;;;;17.90;60.00;;;;;;5067780;28;1456;-70
2024/01/09 10:45:10;;;;;;;;;;;17.90;60.00;;;;;;5044801;28;1633;-69
2024/01/09 10:47:35;;;;;;;;;;;17.90;60.00;;;;;;5044149;28;1434;-69
2024/01/09 10:50:01;;;;;;;;;;;17.90;60.00;;;;;;5041130;28;1252;-69
2024/01/09 10:52:26;;;;;;;;;;;17.90;60.00;;;;;;5041531;28;1518;-69
2024/01/09 10:54:52;;;;;;;;;;;17.90;60.00;;;;;;5023617;28;1902;-69
2024/01/09 10:57:17;;;;;;;;;;;17.90;60.00;;;;;;5042563;28;1351;-69
2024/01/09 10:59:43;;;;;;;;;;;17.90;60.00;;;;;;5038849;28;1382;-70
2024/01/09 11:02:21;;;;;;;;;;;17.90;60.10;;;;;;5048907;28;1361;-70
2024/01/09 11:04:47;;;;;;;;;;;17.90;60.00;;;;;;5039823;28;1815;-70
2024/01/09 11:07:14;;;;;;;;;;;17.90;60.10;;;;;;5040200;28;1411;-70
2024/01/09 11:09:41;;;;;;;;;;;17.90;60.10;;;;;;5038560;28;1265;-69
2024/01/09 11:12:07;;;;;;;;;;;17.80;60.10;;;;;;5049102;28;1267;-69
2024/01/09 11:14:32;;;;;;;;;;;17.80;60.10;;;;;;5072585;28;1977;-70
2024/01/09 11:16:59;;;;;;;;;;;17.90;60.20;;;;;;5072208;28;2399;-70
2024/01/09 11:19:24;;;;;;;;;;;17.80;60.10;;;;;;5041405;28;1427;-70
2024/01/09 11:21:49;;;;;;;;;;;17.90;60.30;;;;;;5071963;28;1499;-69
2024/01/09 11:24:15;;;;;;;;;;;17.90;60.20;;;;;;5041928;28;1487;-70
2024/01/09 11:26:42;;;;;;;;;;;17.80;60.20;;;;;;5042777;28;1569;-70
2024/01/09 11:29:08;;;;;;;;;;;17.90;60.30;;;;;;5041140;28;1341;-70
2024/01/09 11:31:35;;;;;;;;;;;17.90;60.30;;;;;;5048940;28;1245;-70
2024/01/09 11:34:02;;;;;;;;;;;17.90;60.20;;;;;;5042270;28;1995;-70
2024/01/09 11:36:28;;;;;;;;;;;17.90;60.20;;;;;;5042089;28;1596;-69
2024/01/09 11:38:53;;;;;;;;;;;17.90;60.20;;;;;;5039791;28;1820;-69
2024/01/09 11:41:20;;;;;;;;;;;17.80;60.10;;;;;;5047462;28;1427;-70
2024/01/09 11:44:02;;;;;;;;;;;17.80;60.10;;;;;;5041388;28;1397;-69
2024/01/09 11:46:29;;;;;;;;;;;17.80;60.10;;;;;;5042334;28;1252;-69
2024/01/09 11:48:54;;;;;;;;;;;17.80;60.00;;;;;;5040456;28;1523;-69
2024/01/09 11:51:23;;;;;;;;;;;17.90;60.10;;;;;;5036912;28;1459;-70
2024/01/09 11:53:49;;;;;;;;;;;17.90;60.10;;;;;;5037964;28;1906;-69
2024/01/09 11:56:16;;;;;;;;;;;17.90;60.10;;;;;;5038086;28;1223;-69
2024/01/09 11:58:41;;;;;;;;;;;17.90;60.10;;;;;;5072296;28;1632;-69
2024/01/09 12:01:07;;;;;;;;;;;17.90;60.10;;;;;;5069781;28;1479;-69
2024/01/09 12:03:33;;;;;;;;;;;17.90;60.10;;;;;;5041621;28;1508;-69
2024/01/09 12:05:59;;;;;;;;;;;17.80;60.10;;;;;;5042137;28;1471;-69
2024/01/09 12:08:24;;;;;;;;;;;17.90;60.10;;;;;;5040262;28;1261;-69
2024/01/09 12:10:50;;;;;;;;;;;17.80;60.00;;;;;;5037972;28;1593;-69
2024/01/09 12:13:16;;;;;;;;;;;17.90;60.10;;;;;;5039650;28;1984;-69
2024/01/09 12:15:41;;;;;;;;;;;17.90;60.10;;;;;;5039235;28;1454;-69
2024/01/09 12:18:07;;;;;;;;;;;17.90;60.10;;;;;;5036041;28;1695;-68
2024/01/09 12:20:32;;;;;;;;;;;17.90;60.10;;;;;;5040318;28;1468;-69
2024/01/09 12:22:58;;;;;;;;;;;17.80;60.10;;;;;;5039699;28;1249;-69
2024/01/09 12:25:23;;;;;;;;;;;17.90;60.20;;;;;;5069463;28;1168;-69
2024/01/09 12:27:49;;;;;;;;;;;17.90;60.20;;;;;;5039852;28;1572;-69
2024/01/09 12:30:14;;;;;;;;;;;17.80;60.10;;;;;;5038830;28;1510;-68
2024/01/09 12:32:40;;;;;;;;;;;17.80;60.20;;;;;;5037731;28;1568;-69
2024/01/09 12:35:06;;;;;;;;;;;17.80;60.20;;;;;;5037765;28;1879;-69
2024/01/09 12:37:32;;;;;;;;;;;17.80;60.20;;;;;;5038631;28;1400;-69
2024/01/09 12:39:59;;;;;;;;;;;17.80;60.20;;;;;;5023038;28;1618;-70
2024/01/09 12:42:24;;;;;;;;;;;17.80;60.30;;;;;;5039705;28;1844;-70
2024/01/09 12:44:50;;;;;;;;;;;17.80;60.30;;;;;;5038970;28;1545;-70
2024/01/09 12:47:15;;;;;;;;;;;17.80;60.30;;;;;;5039549;28;1089;-70
2024/01/09 12:49:44;;;;;;;;;;;17.80;60.40;;;;;;5036545;28;2169;-68
2024/01/09 12:52:12;;;;;;;;;;;17.80;60.40;;;;;;5037444;28;1032;-69
2024/01/09 12:54:40;;;;;;;;;;;17.80;60.40;;;;;;5039284;28;1969;-69
2024/01/09 12:57:05;;;;;;;;;;;17.80;60.40;;;;;;5038566;28;1440;-69
2024/01/09 12:59:32;;;;;;;;;;;17.80;60.40;;;;;;5040664;28;1712;-70
2024/01/09 13:01:57;;;;;;;;;;;17.80;60.50;;;;;;5038688;28;1398;-69
2024/01/09 13:04:23;;;;;;;;;;;17.80;60.50;;;;;;5039315;28;1459;-70
2024/01/09 13:06:49;;;;;;;;;;;17.70;60.40;;;;;;5036962;28;1661;-69
2024/01/09 13:09:14;;;;;;;;;;;17.70;60.40;;;;;;5070246;28;1314;-68
2024/01/09 13:11:40;;;;;;;;;;;17.70;60.50;;;;;;5033547;28;1550;-69
2024/01/09 13:14:06;;;;;;;;;;;17.70;60.50;;;;;;5036302;28;1977;-69
2024/01/09 13:16:31;;;;;;;;;;;17.70;60.50;;;;;;5039890;28;1206;-68
2024/01/09 13:18:57;;;;;;;;;;;17.70;60.50;;;;;;5036343;28;1550;-68
2024/01/09 13:21:23;;;;;;;;;;;17.70;60.40;;;;;;5040628;28;1481;-68
2024/01/09 13:23:48;;;;;;;;;;;17.70;61.20;;;;;;5040492;28;1498;-68
2024/01/09 13:26:14;;;;;;;;;;;17.80;60.50;;;;;;5037104;28;1542;-69
2024/01/09 13:28:39;;;;;;;;;;;17.70;60.40;;;;;;5047004;28;1474;-69
2024/01/09 13:31:07;;;;;;;;;;;17.80;60.40;;;;;;5063307;28;1563;-70
2024/01/09 13:33:33;;;;;;;;;;;17.80;60.40;;;;;;5040163;28;1950;-69
2024/01/09 13:35:58;;;;;;;;;;;17.80;60.40;;;;;;5040456;28;1450;-69
2024/01/09 13:38:24;;;;;;;;;;;17.80;60.30;;;;;;5041055;28;1441;-69
2024/01/09 13:40:49;;;;;;;;;;;17.80;60.30;;;;;;5039667;28;1670;-70
2024/01/09 13:43:15;;;;;;;;;;;17.80;60.30;;;;;;5068118;28;1319;-69
2024/01/09 13:45:40;;;;;;;;;;;17.80;60.30;;;;;;5039342;28;1372;-69
2024/01/09 13:48:06;;;;;;;;;;;17.80;60.30;;;;;;5039554;28;1485;-69
2024/01/09 13:50:31;;;;;;;;;;;17.80;60.30;;;;;;5038109;28;1392;-70
2024/01/09 13:52:57;;;;;;;;;;;17.80;60.60;;;;;;5037482;28;1907;-70
2024/01/09 13:55:22;;;;;;;;;;;17.90;61.10;;;;;;5039146;28;1302;-70
2024/01/09 13:57:48;;;;;;;;;;;17.90;60.90;;;;;;5046414;28;1529;-69
2024/01/09 14:00:13;;;;;;;;;;;18.00;59.80;;;;;;5037069;28;1237;-69
2024/01/09 14:02:39;;;;;;;;;;;18.00;59.70;;;;;;5037023;28;1274;-70
2024/01/09 14:05:05;;;;;;;;;;;18.00;59.60;;;;;;5038035;28;1418;-69
2024/01/09 14:07:31;;;;;;;;;;;18.00;59.70;;;;;;5053640;28;1377;-68
2024/01/09 14:09:57;;;;;;;;;;;18.00;59.70;;;;;;5036743;28;1531;-68
2024/01/09 14:12:22;;;;;;;;;;;18.00;59.80;;;;;;5035939;28;1408;-69
2024/01/09 14:14:48;;;;;;;;;;;18.00;59.80;;;;;;5035894;28;1902;-69
2024/01/09 14:17:14;;;;;;;;;;;18.00;59.90;;;;;;5035674;28;1636;-68
2024/01/09 14:19:41;;;;;;;;;;;17.90;60.00;;;;;;5039073;28;1501;-68
2024/01/09 14:22:07;;;;;;;;;;;17.90;59.90;;;;;;5029743;28;1510;-68